createdAt,value
2023-04-29T00:03:11.519Z,11.40
2023-04-29T00:06:33.662Z,11.50
2023-04-29T00:09:55.738Z,11.60
2023-04-29T00:13:17.830Z,11.50
2023-04-29T00:16:39.912Z,11.40
2023-04-29T00:20:02.500Z,11.50
2023-04-29T00:23:24.534Z,11.50
2023-04-29T00:26:46.748Z,11.50
2023-04-29T00:30:09.178Z,11.50
2023-04-29T00:33:31.198Z,11.50
2023-04-29T00:36:53.135Z,11.60
2023-04-29T00:40:17.498Z,11.60
2023-04-29T00:43:39.519Z,11.70
2023-04-29T00:47:01.648Z,11.70
2023-04-29T00:50:23.770Z,11.70
2023-04-29T00:53:47.018Z,11.80
2023-04-29T00:57:10.707Z,11.80
2023-04-29T01:00:33.422Z,11.80
2023-04-29T01:03:57.508Z,11.80
2023-04-29T01:07:31.893Z,11.90
2023-04-29T01:11:08.026Z,12.00
2023-04-29T01:14:33.492Z,11.90
2023-04-29T01:18:20.367Z,11.90
2023-04-29T01:21:48.795Z,11.80
2023-04-29T01:25:11.205Z,11.90
2023-04-29T01:28:58.582Z,12.00
2023-04-29T01:32:34.741Z,12.00
2023-04-29T01:36:39.881Z,12.00
2023-04-29T01:40:15.984Z,12.10
2023-04-29T01:43:52.177Z,12.00
2023-04-29T01:47:18.569Z,12.00
2023-04-29T01:50:44.995Z,12.00
2023-04-29T01:54:08.463Z,12.00
2023-04-29T01:57:30.739Z,12.00
2023-04-29T02:01:10.453Z,12.00
2023-04-29T02:04:34.536Z,12.00
2023-04-29T02:07:58.081Z,12.00
2023-04-29T02:11:20.232Z,12.10
2023-04-29T02:14:42.491Z,12.10
2023-04-29T02:18:04.593Z,12.10
2023-04-29T02:21:27.442Z,12.10
2023-04-29T02:24:49.535Z,12.10
2023-04-29T02:28:12.170Z,12.10
2023-04-29T02:31:36.284Z,12.20
2023-04-29T02:34:58.727Z,12.20
2023-04-29T02:38:21.078Z,12.10
2023-04-29T02:41:43.253Z,12.00
2023-04-29T02:45:07.369Z,12.00
2023-04-29T02:48:29.419Z,12.00
2023-04-29T02:51:52.019Z,12.00
2023-04-29T02:55:14.039Z,12.00
2023-04-29T02:58:36.028Z,12.10
2023-04-29T03:01:58.125Z,12.00
2023-04-29T03:05:20.113Z,12.00
2023-04-29T03:08:42.211Z,12.00
2023-04-29T03:12:04.482Z,12.00
2023-04-29T03:15:26.576Z,12.00
2023-04-29T03:18:48.891Z,11.90
2023-04-29T03:22:11.987Z,11.90
2023-04-29T03:25:37.054Z,12.00
2023-04-29T03:28:59.310Z,12.00
2023-04-29T03:32:22.253Z,12.00
2023-04-29T03:35:45.066Z,12.00
2023-04-29T03:39:12.677Z,12.00
2023-04-29T03:42:34.679Z,12.00
2023-04-29T03:45:56.782Z,12.00
2023-04-29T03:49:19.565Z,12.00
2023-04-29T03:52:41.627Z,12.00
2023-04-29T03:56:09.951Z,12.10
2023-04-29T03:59:32.712Z,12.10
2023-04-29T04:02:55.778Z,12.10
2023-04-29T04:06:18.321Z,12.10
2023-04-29T04:09:41.198Z,12.10
2023-04-29T04:13:04.617Z,12.00
2023-04-29T04:16:27.563Z,12.10
2023-04-29T04:19:50.128Z,12.10
2023-04-29T04:23:12.631Z,12.10
2023-04-29T04:26:34.726Z,12.10
2023-04-29T04:30:22.970Z,12.10
2023-04-29T04:33:45.016Z,12.20
2023-04-29T04:37:08.330Z,12.30
2023-04-29T04:40:31.577Z,12.20
2023-04-29T04:44:14.236Z,12.20
2023-04-29T04:47:56.723Z,12.30
2023-04-29T04:51:22.962Z,12.30
2023-04-29T04:54:46.616Z,12.20
2023-04-29T04:58:16.497Z,12.30
2023-04-29T05:01:38.720Z,12.30
2023-04-29T05:05:00.917Z,12.30
2023-04-29T05:08:26.435Z,12.40
2023-04-29T05:11:51.205Z,12.40
2023-04-29T05:15:15.049Z,12.50
2023-04-29T05:18:38.596Z,12.60
2023-04-29T05:22:00.750Z,12.70
2023-04-29T05:25:23.140Z,12.80
2023-04-29T05:28:45.914Z,12.90
2023-04-29T05:32:09.445Z,13.00
2023-04-29T05:35:32.345Z,13.10
2023-04-29T05:38:54.925Z,13.10
2023-04-29T05:42:17.106Z,13.20
2023-04-29T05:45:47.304Z,13.50
2023-04-29T05:49:09.341Z,13.70
2023-04-29T05:52:31.323Z,13.90
2023-04-29T05:55:54.130Z,14.20
2023-04-29T05:59:16.975Z,14.30
2023-04-29T06:02:57.405Z,14.40
2023-04-29T06:06:20.871Z,14.50
2023-04-29T06:10:03.739Z,14.50
2023-04-29T06:13:27.167Z,14.70
2023-04-29T06:16:49.698Z,14.80
2023-04-29T06:20:12.220Z,15.00
2023-04-29T06:23:34.362Z,15.30
2023-04-29T06:27:00.848Z,15.40
2023-04-29T06:30:22.913Z,15.40
2023-04-29T06:33:44.968Z,15.50
2023-04-29T06:37:07.321Z,15.40
2023-04-29T06:41:04.700Z,15.70
2023-04-29T06:44:47.217Z,15.80
2023-04-29T06:48:23.970Z,15.60
2023-04-29T06:51:45.959Z,15.60
2023-04-29T06:55:08.607Z,15.50
2023-04-29T06:58:30.776Z,15.50
2023-04-29T07:01:52.829Z,15.30
2023-04-29T07:05:14.997Z,15.30
2023-04-29T07:08:39.982Z,15.50
2023-04-29T07:12:04.961Z,16.10
2023-04-29T07:15:30.649Z,16.60
2023-04-29T07:18:53.132Z,16.90
2023-04-29T07:22:15.203Z,17.20
2023-04-29T07:25:37.300Z,17.50
2023-04-29T07:29:00.384Z,17.90
2023-04-29T07:32:22.664Z,18.70
2023-04-29T07:35:44.676Z,19.00
2023-04-29T07:39:06.791Z,18.70
2023-04-29T07:42:28.905Z,18.70
2023-04-29T07:45:51.805Z,18.50
2023-04-29T07:49:13.788Z,18.40
2023-04-29T07:52:36.880Z,18.50
2023-04-29T07:55:58.926Z,18.30
2023-04-29T07:59:21.391Z,17.80
2023-04-29T08:02:44.854Z,17.70
2023-04-29T08:06:09.425Z,17.60
2023-04-29T08:09:31.453Z,17.80
2023-04-29T08:12:53.404Z,17.90
2023-04-29T08:16:15.546Z,18.00
2023-04-29T08:19:37.601Z,18.30
2023-04-29T08:23:00.742Z,18.30
2023-04-29T08:26:24.118Z,18.40
2023-04-29T08:29:46.236Z,18.40
2023-04-29T08:33:08.606Z,19.00
2023-04-29T08:36:30.679Z,19.70
2023-04-29T08:39:52.629Z,20.20
2023-04-29T08:43:20.949Z,20.80
2023-04-29T08:46:45.585Z,21.30
2023-04-29T08:50:09.356Z,21.30
2023-04-29T08:53:31.421Z,21.20
2023-04-29T08:56:55.705Z,20.70
2023-04-29T09:00:19.790Z,21.20
2023-04-29T09:03:57.294Z,21.70
2023-04-29T09:07:20.214Z,22.20
2023-04-29T09:10:43.204Z,22.90
2023-04-29T09:14:05.571Z,22.80
2023-04-29T09:17:49.390Z,22.50
2023-04-29T09:21:21.687Z,22.40
2023-04-29T09:24:45.655Z,22.50
2023-04-29T09:28:16.783Z,22.40
2023-04-29T09:31:42.220Z,22.50
2023-04-29T09:35:24.043Z,22.30
2023-04-29T09:38:55.736Z,22.20
2023-04-29T09:42:17.723Z,22.40
2023-04-29T09:45:44.751Z,23.00
2023-04-29T09:49:29.424Z,23.50
2023-04-29T09:52:51.499Z,24.10
2023-04-29T09:56:13.468Z,22.40
2023-04-29T09:59:38.517Z,21.80
2023-04-29T10:03:01.721Z,21.40
2023-04-29T10:06:25.651Z,22.10
2023-04-29T10:09:48.747Z,23.00
2023-04-29T10:13:10.966Z,22.40
2023-04-29T10:16:41.937Z,22.70
2023-04-29T10:20:09.058Z,22.90
2023-04-29T10:23:32.715Z,22.90
2023-04-29T10:26:56.808Z,22.90
2023-04-29T10:30:19.899Z,23.20
2023-04-29T10:33:48.281Z,23.80
2023-04-29T10:37:11.858Z,23.50
2023-04-29T10:40:47.807Z,24.10
2023-04-29T10:44:10.465Z,24.60
2023-04-29T10:47:32.517Z,25.00
2023-04-29T10:50:57.488Z,25.40
2023-04-29T10:54:25.606Z,25.40
2023-04-29T10:57:47.905Z,24.50
2023-04-29T11:01:15.132Z,23.70
2023-04-29T11:05:09.505Z,23.30
2023-04-29T11:08:31.799Z,23.60
2023-04-29T11:12:03.568Z,23.80
2023-04-29T11:15:26.119Z,23.50
2023-04-29T11:19:08.521Z,23.80
2023-04-29T11:22:30.964Z,23.60
2023-04-29T11:25:53.384Z,23.00
2023-04-29T11:29:15.700Z,23.00
2023-04-29T11:32:51.149Z,22.80
2023-04-29T11:36:14.344Z,22.60
2023-04-29T11:39:36.647Z,22.80
2023-04-29T11:42:58.637Z,22.80
2023-04-29T11:46:20.607Z,22.30
2023-04-29T11:49:43.169Z,22.50
2023-04-29T11:53:06.065Z,22.80
2023-04-29T11:56:28.157Z,22.20
2023-04-29T11:59:50.162Z,21.80
2023-04-29T12:03:20.011Z,22.00
2023-04-29T12:06:42.235Z,22.30
2023-04-29T12:10:07.842Z,22.60
2023-04-29T12:13:30.952Z,23.00
2023-04-29T12:16:54.247Z,22.70
2023-04-29T12:20:16.488Z,22.40
2023-04-29T12:23:39.300Z,22.50
2023-04-29T12:27:01.342Z,23.00
2023-04-29T12:30:23.346Z,22.70
2023-04-29T12:33:45.582Z,22.80
2023-04-29T12:37:07.564Z,22.90
2023-04-29T12:40:30.376Z,23.20
2023-04-29T12:43:52.870Z,23.30
2023-04-29T12:47:15.979Z,23.10
2023-04-29T12:50:39.557Z,23.10
2023-04-29T12:54:06.285Z,22.70
2023-04-29T12:57:28.661Z,22.50
2023-04-29T13:00:50.809Z,22.40
2023-04-29T13:04:12.909Z,22.30
2023-04-29T13:07:36.924Z,22.00
2023-04-29T13:10:59.158Z,22.30
2023-04-29T13:14:21.444Z,22.70
2023-04-29T13:17:43.700Z,22.50
2023-04-29T13:21:05.856Z,23.20
2023-04-29T13:24:27.946Z,23.60
2023-04-29T13:27:49.950Z,24.40
2023-04-29T13:31:12.080Z,24.40
2023-04-29T13:34:34.069Z,23.70
2023-04-29T13:37:57.072Z,23.10
2023-04-29T13:41:20.429Z,23.00
2023-04-29T13:44:52.637Z,23.30
2023-04-29T13:48:25.941Z,23.80
2023-04-29T13:52:42.936Z,23.20
2023-04-29T13:56:01.818Z,22.70
2023-04-29T14:02:43.755Z,23.20
2023-04-29T14:06:06.540Z,23.70
2023-04-29T14:09:28.954Z,23.40
2023-04-29T14:12:50.897Z,23.50
2023-04-29T14:16:12.983Z,24.20
2023-04-29T14:19:35.044Z,24.90
2023-04-29T14:22:57.014Z,25.10
2023-04-29T14:29:43.913Z,24.60
2023-04-29T14:33:06.005Z,24.50
2023-04-29T14:36:28.368Z,24.30
2023-04-29T14:39:50.462Z,23.50
2023-04-29T14:43:12.416Z,22.80
2023-04-29T14:46:34.705Z,22.70
2023-04-29T14:49:56.815Z,23.00
2023-04-29T14:53:18.756Z,22.80
2023-04-29T14:56:40.808Z,22.60
2023-04-29T15:00:03.610Z,22.80
2023-04-29T15:03:25.983Z,22.80
2023-04-29T15:06:48.125Z,22.70
2023-04-29T15:10:10.200Z,22.40
2023-04-29T15:13:32.282Z,22.10
2023-04-29T15:16:54.454Z,21.90
2023-04-29T15:20:16.900Z,21.70
2023-04-29T15:23:39.495Z,21.60
2023-04-29T15:27:02.460Z,21.80
2023-04-29T15:30:24.944Z,22.20
2023-04-29T15:33:46.932Z,21.90
2023-04-29T15:37:08.913Z,21.60
2023-04-29T15:40:30.990Z,21.40
2023-04-29T15:43:54.123Z,21.50
2023-04-29T15:47:16.477Z,21.60
2023-04-29T15:50:38.407Z,21.50
2023-04-29T15:54:00.374Z,21.30
2023-04-29T15:57:22.393Z,21.30
2023-04-29T16:00:44.460Z,21.20
2023-04-29T16:04:06.515Z,21.10
2023-04-29T16:07:28.473Z,20.90
2023-04-29T16:10:50.446Z,20.80
2023-04-29T16:14:12.969Z,20.50
2023-04-29T16:17:36.891Z,20.40
2023-04-29T16:20:59.796Z,20.30
2023-04-29T16:24:21.840Z,20.30
2023-04-29T16:27:43.822Z,20.40
2023-04-29T16:31:05.993Z,20.30
2023-04-29T16:34:28.442Z,20.50
2023-04-29T16:37:53.608Z,20.40
2023-04-29T16:41:15.791Z,20.30
2023-04-29T16:44:38.234Z,20.30
2023-04-29T16:48:01.625Z,20.30
2023-04-29T16:51:27.576Z,20.20
2023-04-29T16:54:49.511Z,19.90
2023-04-29T16:58:11.523Z,20.00
2023-04-29T17:01:33.593Z,19.90
2023-04-29T17:04:55.646Z,20.10
2023-04-29T17:08:17.776Z,20.00
2023-04-29T17:11:39.748Z,19.90
2023-04-29T17:15:01.920Z,20.00
2023-04-29T17:18:23.944Z,20.10
2023-04-29T17:21:46.617Z,20.00
2023-04-29T17:25:09.333Z,19.90
2023-04-29T17:28:31.610Z,19.70
2023-04-29T17:32:00.019Z,19.60
2023-04-29T17:35:23.183Z,19.40
2023-04-29T17:38:45.170Z,19.40
2023-04-29T17:42:07.567Z,19.20
2023-04-29T17:45:29.773Z,19.00
2023-04-29T17:48:51.730Z,18.80
2023-04-29T17:52:15.145Z,18.70
2023-04-29T17:55:40.884Z,18.60
2023-04-29T17:59:06.294Z,18.40
2023-04-29T18:02:28.371Z,18.40
2023-04-29T18:05:51.297Z,18.30
2023-04-29T18:09:13.291Z,18.10
2023-04-29T18:12:35.759Z,17.90
2023-04-29T18:15:59.488Z,17.80
2023-04-29T18:19:21.473Z,17.70
2023-04-29T18:22:43.489Z,17.60
2023-04-29T18:26:05.681Z,17.40
2023-04-29T18:29:27.767Z,17.30
2023-04-29T18:32:49.790Z,17.10
2023-04-29T18:36:14.168Z,17.00
2023-04-29T18:39:36.572Z,16.80
2023-04-29T18:42:58.761Z,16.70
2023-04-29T18:46:20.885Z,16.60
2023-04-29T18:49:42.855Z,16.50
2023-04-29T18:53:04.821Z,16.30
2023-04-29T18:56:26.860Z,16.30
2023-04-29T18:59:48.867Z,16.20
2023-04-29T19:03:11.548Z,16.10
2023-04-29T19:06:33.614Z,16.10
2023-04-29T19:09:56.182Z,16.00
2023-04-29T19:13:18.307Z,16.00
2023-04-29T19:16:40.354Z,15.90
2023-04-29T19:20:02.388Z,15.80
2023-04-29T19:23:24.374Z,15.80
2023-04-29T19:26:46.358Z,15.70
2023-04-29T19:30:09.336Z,15.70
2023-04-29T19:33:31.431Z,15.70
2023-04-29T19:36:53.637Z,15.70
2023-04-29T19:40:15.944Z,15.60
2023-04-29T19:43:38.021Z,15.60
2023-04-29T19:47:00.070Z,15.50
2023-04-29T19:50:22.790Z,15.50
2023-04-29T19:53:44.984Z,15.40
2023-04-29T19:57:07.505Z,15.30
2023-04-29T20:00:29.597Z,15.20
2023-04-29T20:03:51.673Z,15.20
2023-04-29T20:07:13.686Z,15.10
2023-04-29T20:10:35.778Z,15.10
2023-04-29T20:13:58.056Z,15.00
2023-04-29T20:17:20.029Z,15.00
2023-04-29T20:20:42.111Z,14.90
2023-04-29T20:24:04.705Z,14.90
2023-04-29T20:27:26.796Z,14.80
2023-04-29T20:30:48.758Z,14.70
2023-04-29T20:34:11.385Z,14.60
2023-04-29T20:37:33.698Z,14.60
2023-04-29T20:40:55.700Z,14.50
2023-04-29T20:44:17.753Z,14.50
2023-04-29T20:47:44.041Z,14.40
2023-04-29T20:51:06.099Z,14.40
2023-04-29T20:54:28.156Z,14.30
2023-04-29T20:57:50.176Z,14.30
2023-04-29T21:01:12.264Z,14.20
2023-04-29T21:04:34.396Z,14.20
2023-04-29T21:07:56.397Z,14.10
2023-04-29T21:11:18.545Z,14.10
2023-04-29T21:14:42.154Z,14.00
2023-04-29T21:18:05.973Z,14.00
2023-04-29T21:21:28.059Z,14.10
2023-04-29T21:24:49.986Z,14.10
2023-04-29T21:28:12.531Z,14.00
2023-04-29T21:31:35.833Z,13.90
2023-04-29T21:34:57.778Z,14.10
2023-04-29T21:38:19.756Z,14.00
2023-04-29T21:41:42.635Z,14.00
2023-04-29T21:45:05.348Z,13.90
2023-04-29T21:48:27.563Z,14.10
2023-04-29T21:51:49.576Z,14.20
2023-04-29T21:55:11.564Z,14.20
2023-04-29T21:58:33.961Z,14.20
2023-04-29T22:02:00.840Z,14.20
2023-04-29T22:05:22.860Z,14.20
2023-04-29T22:08:44.860Z,14.20
2023-04-29T22:12:06.871Z,14.10
2023-04-29T22:15:29.620Z,14.10
2023-04-29T22:18:52.320Z,14.10
2023-04-29T22:22:14.473Z,14.10
2023-04-29T22:25:36.526Z,14.00
2023-04-29T22:28:58.503Z,13.90
2023-04-29T22:32:20.419Z,13.90
2023-04-29T22:35:42.504Z,13.90
2023-04-29T22:39:04.418Z,13.80
2023-04-29T22:42:26.626Z,13.80
2023-04-29T22:45:56.121Z,13.80
2023-04-29T22:49:18.130Z,13.80
2023-04-29T22:52:40.346Z,13.70
2023-04-29T22:56:02.903Z,13.70
2023-04-29T22:59:24.904Z,13.70
2023-04-29T23:02:47.156Z,13.60
2023-04-29T23:06:09.241Z,13.60
2023-04-29T23:09:31.260Z,13.50
2023-04-29T23:12:53.336Z,13.50
2023-04-29T23:16:15.469Z,13.40
2023-04-29T23:19:37.478Z,13.40
2023-04-29T23:22:59.583Z,13.30
2023-04-29T23:26:23.224Z,13.20
2023-04-29T23:29:45.452Z,13.20
2023-04-29T23:33:07.525Z,13.10
2023-04-29T23:36:29.639Z,13.00
2023-04-29T23:39:52.048Z,13.00
2023-04-29T23:43:17.275Z,12.90
2023-04-29T23:46:39.300Z,12.90
2023-04-29T23:50:01.318Z,12.80
2023-04-29T23:53:23.258Z,12.80
2023-04-29T23:56:45.248Z,12.80
